sensor_id;sensor_type;location;lat;lon;timestamp;temperature;humidity
4376;DHT22;2202;50.866;12.750;2022-08-21T00:00:10;17.40;97.10
4376;DHT22;2202;50.866;12.750;2022-08-21T00:02:42;17.40;97.10
4376;DHT22;2202;50.866;12.750;2022-08-21T00:05:12;17.40;97.20
4376;DHT22;2202;50.866;12.750;2022-08-21T00:07:39;17.30;97.20
4376;DHT22;2202;50.866;12.750;2022-08-21T00:10:06;17.30;97.40
4376;DHT22;2202;50.866;12.750;2022-08-21T00:12:33;17.30;97.50
4376;DHT22;2202;50.866;12.750;2022-08-21T00:15:00;17.30;97.40
4376;DHT22;2202;50.866;12.750;2022-08-21T00:17:27;17.20;97.80
4376;DHT22;2202;50.866;12.750;2022-08-21T00:19:54;17.20;97.70
4376;DHT22;2202;50.866;12.750;2022-08-21T00:22:23;17.30;97.80
4376;DHT22;2202;50.866;12.750;2022-08-21T00:24:50;17.30;97.60
4376;DHT22;2202;50.866;12.750;2022-08-21T00:27:17;17.30;97.40
4376;DHT22;2202;50.866;12.750;2022-08-21T00:29:44;17.30;97.00
4376;DHT22;2202;50.866;12.750;2022-08-21T00:32:11;17.40;97.30
4376;DHT22;2202;50.866;12.750;2022-08-21T00:34:38;17.50;97.00
4376;DHT22;2202;50.866;12.750;2022-08-21T00:37:05;17.50;96.90
4376;DHT22;2202;50.866;12.750;2022-08-21T00:39:34;17.40;96.50
4376;DHT22;2202;50.866;12.750;2022-08-21T00:42:01;17.40;96.80
4376;DHT22;2202;50.866;12.750;2022-08-21T00:44:28;17.50;96.70
4376;DHT22;2202;50.866;12.750;2022-08-21T00:46:56;17.50;96.40
4376;DHT22;2202;50.866;12.750;2022-08-21T00:49:23;17.50;96.40
4376;DHT22;2202;50.866;12.750;2022-08-21T00:51:52;17.50;96.40
4376;DHT22;2202;50.866;12.750;2022-08-21T00:54:22;17.50;96.40
4376;DHT22;2202;50.866;12.750;2022-08-21T00:56:54;17.50;96.40
4376;DHT22;2202;50.866;12.750;2022-08-21T00:59:23;17.50;96.50
4376;DHT22;2202;50.866;12.750;2022-08-21T01:01:51;17.50;96.70
4376;DHT22;2202;50.866;12.750;2022-08-21T01:04:19;17.50;96.70
4376;DHT22;2202;50.866;12.750;2022-08-21T01:06:46;17.50;96.80
4376;DHT22;2202;50.866;12.750;2022-08-21T01:09:13;17.50;96.90
4376;DHT22;2202;50.866;12.750;2022-08-21T01:11:40;17.50;96.90
4376;DHT22;2202;50.866;12.750;2022-08-21T01:14:10;17.50;96.80
4376;DHT22;2202;50.866;12.750;2022-08-21T01:16:39;17.50;96.70
4376;DHT22;2202;50.866;12.750;2022-08-21T01:19:07;17.50;96.80
4376;DHT22;2202;50.866;12.750;2022-08-21T01:21:36;17.50;97.10
4376;DHT22;2202;50.866;12.750;2022-08-21T01:24:03;17.50;97.10
4376;DHT22;2202;50.866;12.750;2022-08-21T01:26:33;17.40;97.30
4376;DHT22;2202;50.866;12.750;2022-08-21T01:29:05;17.40;97.40
4376;DHT22;2202;50.866;12.750;2022-08-21T01:31:33;17.30;97.70
4376;DHT22;2202;50.866;12.750;2022-08-21T01:34:00;17.40;97.80
4376;DHT22;2202;50.866;12.750;2022-08-21T01:36:27;17.40;97.70
4376;DHT22;2202;50.866;12.750;2022-08-21T01:38:56;17.40;97.70
4376;DHT22;2202;50.866;12.750;2022-08-21T01:41:23;17.40;97.80
4376;DHT22;2202;50.866;12.750;2022-08-21T01:43:50;17.40;97.80
4376;DHT22;2202;50.866;12.750;2022-08-21T01:46:17;17.40;98.00
4376;DHT22;2202;50.866;12.750;2022-08-21T01:48:44;17.40;97.80
4376;DHT22;2202;50.866;12.750;2022-08-21T01:51:12;17.40;97.70
4376;DHT22;2202;50.866;12.750;2022-08-21T01:53:39;17.40;97.90
4376;DHT22;2202;50.866;12.750;2022-08-21T01:56:09;17.30;98.40
4376;DHT22;2202;50.866;12.750;2022-08-21T01:58:36;17.30;98.50
4376;DHT22;2202;50.866;12.750;2022-08-21T02:01:04;17.20;98.80
4376;DHT22;2202;50.866;12.750;2022-08-21T02:03:31;17.10;99.40
4376;DHT22;2202;50.866;12.750;2022-08-21T02:05:58;17.00;99.60
4376;DHT22;2202;50.866;12.750;2022-08-21T02:08:25;17.00;99.90
4376;DHT22;2202;50.866;12.750;2022-08-21T02:10:52;17.00;99.90
4376;DHT22;2202;50.866;12.750;2022-08-21T02:13:20;17.00;99.90
4376;DHT22;2202;50.866;12.750;2022-08-21T02:15:47;16.90;99.90
4376;DHT22;2202;50.866;12.750;2022-08-21T02:18:14;16.90;99.90
4376;DHT22;2202;50.866;12.750;2022-08-21T02:20:44;16.90;99.90
4376;DHT22;2202;50.866;12.750;2022-08-21T02:23:12;16.90;99.90
4376;DHT22;2202;50.866;12.750;2022-08-21T02:25:40;17.00;99.90
4376;DHT22;2202;50.866;12.750;2022-08-21T02:28:11;16.90;99.90
4376;DHT22;2202;50.866;12.750;2022-08-21T02:30:42;16.90;99.90
4376;DHT22;2202;50.866;12.750;2022-08-21T02:33:10;17.00;99.90
4376;DHT22;2202;50.866;12.750;2022-08-21T02:35:37;17.00;99.90
4376;DHT22;2202;50.866;12.750;2022-08-21T02:38:06;17.10;99.90
4376;DHT22;2202;50.866;12.750;2022-08-21T02:40:36;17.10;99.90
4376;DHT22;2202;50.866;12.750;2022-08-21T02:43:05;17.10;99.90
4376;DHT22;2202;50.866;12.750;2022-08-21T02:45:33;17.20;99.90
4376;DHT22;2202;50.866;12.750;2022-08-21T02:48:05;17.20;99.90
4376;DHT22;2202;50.866;12.750;2022-08-21T02:50:34;17.20;99.90
4376;DHT22;2202;50.866;12.750;2022-08-21T02:53:02;17.20;99.90
4376;DHT22;2202;50.866;12.750;2022-08-21T02:55:30;17.20;99.90
4376;DHT22;2202;50.866;12.750;2022-08-21T02:57:58;17.20;99.90
4376;DHT22;2202;50.866;12.750;2022-08-21T03:00:27;17.30;99.70
4376;DHT22;2202;50.866;12.750;2022-08-21T03:02:55;17.30;99.60
4376;DHT22;2202;50.866;12.750;2022-08-21T03:05:24;17.30;99.40
4376;DHT22;2202;50.866;12.750;2022-08-21T03:07:51;17.30;99.40
4376;DHT22;2202;50.866;12.750;2022-08-21T03:10:19;17.30;99.20
4376;DHT22;2202;50.866;12.750;2022-08-21T03:12:47;17.40;98.90
4376;DHT22;2202;50.866;12.750;2022-08-21T03:15:16;17.40;98.80
4376;DHT22;2202;50.866;12.750;2022-08-21T03:17:43;17.40;98.80
4376;DHT22;2202;50.866;12.750;2022-08-21T03:20:11;17.30;98.60
4376;DHT22;2202;50.866;12.750;2022-08-21T03:22:41;17.30;98.70
4376;DHT22;2202;50.866;12.750;2022-08-21T03:25:08;17.30;98.60
4376;DHT22;2202;50.866;12.750;2022-08-21T03:27:36;17.30;98.60
4376;DHT22;2202;50.866;12.750;2022-08-21T03:30:05;17.40;98.50
4376;DHT22;2202;50.866;12.750;2022-08-21T03:32:33;17.40;98.50
4376;DHT22;2202;50.866;12.750;2022-08-21T03:35:00;17.40;98.30
4376;DHT22;2202;50.866;12.750;2022-08-21T03:37:28;17.40;98.30
4376;DHT22;2202;50.866;12.750;2022-08-21T03:39:56;17.40;98.30
4376;DHT22;2202;50.866;12.750;2022-08-21T03:42:23;17.40;98.30
4376;DHT22;2202;50.866;12.750;2022-08-21T03:44:50;17.40;98.30
4376;DHT22;2202;50.866;12.750;2022-08-21T03:47:17;17.40;98.40
4376;DHT22;2202;50.866;12.750;2022-08-21T03:49:44;17.40;98.30
4376;DHT22;2202;50.866;12.750;2022-08-21T03:52:11;17.30;98.50
4376;DHT22;2202;50.866;12.750;2022-08-21T03:54:38;17.30;98.60
4376;DHT22;2202;50.866;12.750;2022-08-21T03:57:07;17.30;98.70
4376;DHT22;2202;50.866;12.750;2022-08-21T03:59:34;17.30;98.80
4376;DHT22;2202;50.866;12.750;2022-08-21T04:02:03;17.20;98.90
4376;DHT22;2202;50.866;12.750;2022-08-21T04:04:31;17.20;99.20
4376;DHT22;2202;50.866;12.750;2022-08-21T04:06:58;17.20;99.10
4376;DHT22;2202;50.866;12.750;2022-08-21T04:09:26;17.20;99.10
4376;DHT22;2202;50.866;12.750;2022-08-21T04:11:53;17.10;99.50
4376;DHT22;2202;50.866;12.750;2022-08-21T04:14:21;17.10;99.40
4376;DHT22;2202;50.866;12.750;2022-08-21T04:16:48;17.00;99.50
4376;DHT22;2202;50.866;12.750;2022-08-21T04:19:15;16.90;99.80
4376;DHT22;2202;50.866;12.750;2022-08-21T04:21:43;16.90;99.90
4376;DHT22;2202;50.866;12.750;2022-08-21T04:24:10;16.90;99.90
4376;DHT22;2202;50.866;12.750;2022-08-21T04:26:38;16.90;99.90
4376;DHT22;2202;50.866;12.750;2022-08-21T04:29:05;16.90;99.90
4376;DHT22;2202;50.866;12.750;2022-08-21T04:31:34;16.80;99.90
4376;DHT22;2202;50.866;12.750;2022-08-21T04:34:02;16.70;99.90
4376;DHT22;2202;50.866;12.750;2022-08-21T04:36:30;16.70;99.90
4376;DHT22;2202;50.866;12.750;2022-08-21T04:38:57;16.60;99.90
4376;DHT22;2202;50.866;12.750;2022-08-21T04:41:24;16.70;99.90
4376;DHT22;2202;50.866;12.750;2022-08-21T04:43:51;16.80;99.90
4376;DHT22;2202;50.866;12.750;2022-08-21T04:46:21;16.90;99.90
4376;DHT22;2202;50.866;12.750;2022-08-21T04:48:49;16.80;99.90
4376;DHT22;2202;50.866;12.750;2022-08-21T04:51:18;16.70;99.90
4376;DHT22;2202;50.866;12.750;2022-08-21T04:53:49;16.80;99.90
4376;DHT22;2202;50.866;12.750;2022-08-21T04:56:21;16.80;99.90
4376;DHT22;2202;50.866;12.750;2022-08-21T04:58:50;16.80;99.90
4376;DHT22;2202;50.866;12.750;2022-08-21T05:01:22;16.80;99.90
4376;DHT22;2202;50.866;12.750;2022-08-21T05:03:54;16.80;99.90
4376;DHT22;2202;50.866;12.750;2022-08-21T05:06:23;16.80;99.90
4376;DHT22;2202;50.866;12.750;2022-08-21T05:08:52;16.80;99.90
4376;DHT22;2202;50.866;12.750;2022-08-21T05:11:20;16.80;99.90
4376;DHT22;2202;50.866;12.750;2022-08-21T05:13:47;16.80;99.90
4376;DHT22;2202;50.866;12.750;2022-08-21T05:16:15;16.90;99.90
4376;DHT22;2202;50.866;12.750;2022-08-21T05:18:42;16.90;99.90
4376;DHT22;2202;50.866;12.750;2022-08-21T05:21:11;17.00;99.90
4376;DHT22;2202;50.866;12.750;2022-08-21T05:23:38;17.00;99.90
4376;DHT22;2202;50.866;12.750;2022-08-21T05:26:05;17.00;99.90
4376;DHT22;2202;50.866;12.750;2022-08-21T05:28:32;16.90;99.90
4376;DHT22;2202;50.866;12.750;2022-08-21T05:30:59;16.90;99.90
4376;DHT22;2202;50.866;12.750;2022-08-21T05:33:26;16.80;99.90
4376;DHT22;2202;50.866;12.750;2022-08-21T05:35:54;16.80;99.90
4376;DHT22;2202;50.866;12.750;2022-08-21T05:38:23;16.80;99.90
4376;DHT22;2202;50.866;12.750;2022-08-21T05:40:50;16.80;99.90
4376;DHT22;2202;50.866;12.750;2022-08-21T05:43:17;17.00;99.90
4376;DHT22;2202;50.866;12.750;2022-08-21T05:45:44;17.00;99.90
4376;DHT22;2202;50.866;12.750;2022-08-21T05:48:14;17.00;99.70
4376;DHT22;2202;50.866;12.750;2022-08-21T05:50:41;17.00;99.90
4376;DHT22;2202;50.866;12.750;2022-08-21T05:53:09;17.20;99.90
4376;DHT22;2202;50.866;12.750;2022-08-21T05:55:38;17.30;99.90
4376;DHT22;2202;50.866;12.750;2022-08-21T05:58:05;17.40;99.40
4376;DHT22;2202;50.866;12.750;2022-08-21T06:00:32;17.20;98.80
4376;DHT22;2202;50.866;12.750;2022-08-21T06:02:59;17.20;98.80
4376;DHT22;2202;50.866;12.750;2022-08-21T06:05:26;17.20;98.70
4376;DHT22;2202;50.866;12.750;2022-08-21T06:07:53;17.30;98.70
4376;DHT22;2202;50.866;12.750;2022-08-21T06:10:20;17.40;98.10
4376;DHT22;2202;50.866;12.750;2022-08-21T06:12:52;17.30;98.10
4376;DHT22;2202;50.866;12.750;2022-08-21T06:15:20;17.30;98.00
4376;DHT22;2202;50.866;12.750;2022-08-21T06:17:47;17.20;98.00
4376;DHT22;2202;50.866;12.750;2022-08-21T06:20:14;17.20;98.30
4376;DHT22;2202;50.866;12.750;2022-08-21T06:22:41;17.30;97.90
4376;DHT22;2202;50.866;12.750;2022-08-21T06:25:08;17.20;98.20
4376;DHT22;2202;50.866;12.750;2022-08-21T06:27:36;17.20;98.70
4376;DHT22;2202;50.866;12.750;2022-08-21T06:30:06;17.20;98.20
4376;DHT22;2202;50.866;12.750;2022-08-21T06:32:33;17.20;98.00
4376;DHT22;2202;50.866;12.750;2022-08-21T06:35:01;17.30;97.80
4376;DHT22;2202;50.866;12.750;2022-08-21T06:37:28;17.20;98.30
4376;DHT22;2202;50.866;12.750;2022-08-21T06:39:54;17.30;98.40
4376;DHT22;2202;50.866;12.750;2022-08-21T06:42:21;17.30;98.20
4376;DHT22;2202;50.866;12.750;2022-08-21T06:44:48;17.30;98.10
4376;DHT22;2202;50.866;12.750;2022-08-21T06:47:17;17.30;97.90
4376;DHT22;2202;50.866;12.750;2022-08-21T06:49:44;17.20;98.00
4376;DHT22;2202;50.866;12.750;2022-08-21T06:52:12;17.20;98.00
4376;DHT22;2202;50.866;12.750;2022-08-21T06:54:39;17.20;98.10
4376;DHT22;2202;50.866;12.750;2022-08-21T06:57:07;17.30;98.20
4376;DHT22;2202;50.866;12.750;2022-08-21T06:59:34;17.30;98.30
4376;DHT22;2202;50.866;12.750;2022-08-21T07:02:01;17.30;97.80
4376;DHT22;2202;50.866;12.750;2022-08-21T07:04:29;17.20;98.20
4376;DHT22;2202;50.866;12.750;2022-08-21T07:06:56;17.20;98.40
4376;DHT22;2202;50.866;12.750;2022-08-21T07:09:23;17.30;98.40
4376;DHT22;2202;50.866;12.750;2022-08-21T07:11:53;17.20;98.30
4376;DHT22;2202;50.866;12.750;2022-08-21T07:14:21;17.30;98.30
4376;DHT22;2202;50.866;12.750;2022-08-21T07:16:49;17.30;98.10
4376;DHT22;2202;50.866;12.750;2022-08-21T07:19:17;17.40;98.30
4376;DHT22;2202;50.866;12.750;2022-08-21T07:21:46;17.40;98.10
4376;DHT22;2202;50.866;12.750;2022-08-21T07:24:13;17.30;98.10
4376;DHT22;2202;50.866;12.750;2022-08-21T07:26:40;17.30;98.30
4376;DHT22;2202;50.866;12.750;2022-08-21T07:29:07;17.20;98.10
4376;DHT22;2202;50.866;12.750;2022-08-21T07:31:34;17.20;98.50
4376;DHT22;2202;50.866;12.750;2022-08-21T07:34:01;17.30;98.60
4376;DHT22;2202;50.866;12.750;2022-08-21T07:36:28;17.30;98.20
4376;DHT22;2202;50.866;12.750;2022-08-21T07:38:56;17.30;97.90
4376;DHT22;2202;50.866;12.750;2022-08-21T07:41:25;17.30;98.00
4376;DHT22;2202;50.866;12.750;2022-08-21T07:43:54;17.40;98.10
4376;DHT22;2202;50.866;12.750;2022-08-21T07:46:21;17.40;97.60
4376;DHT22;2202;50.866;12.750;2022-08-21T07:48:48;17.50;97.70
4376;DHT22;2202;50.866;12.750;2022-08-21T07:51:16;17.40;97.50
4376;DHT22;2202;50.866;12.750;2022-08-21T07:53:48;17.60;97.60
4376;DHT22;2202;50.866;12.750;2022-08-21T07:56:16;17.60;96.80
4376;DHT22;2202;50.866;12.750;2022-08-21T07:58:43;17.60;96.70
4376;DHT22;2202;50.866;12.750;2022-08-21T08:01:10;17.60;96.70
4376;DHT22;2202;50.866;12.750;2022-08-21T08:03:38;17.80;96.30
4376;DHT22;2202;50.866;12.750;2022-08-21T08:06:05;17.80;95.70
4376;DHT22;2202;50.866;12.750;2022-08-21T08:08:34;17.80;95.90
4376;DHT22;2202;50.866;12.750;2022-08-21T08:11:01;17.70;96.20
4376;DHT22;2202;50.866;12.750;2022-08-21T08:13:29;17.80;96.50
4376;DHT22;2202;50.866;12.750;2022-08-21T08:15:56;17.80;96.00
4376;DHT22;2202;50.866;12.750;2022-08-21T08:18:23;17.90;96.40
4376;DHT22;2202;50.866;12.750;2022-08-21T08:20:50;18.00;95.40
4376;DHT22;2202;50.866;12.750;2022-08-21T08:23:17;18.10;94.90
4376;DHT22;2202;50.866;12.750;2022-08-21T08:25:44;18.00;94.90
4376;DHT22;2202;50.866;12.750;2022-08-21T08:28:12;17.90;95.10
4376;DHT22;2202;50.866;12.750;2022-08-21T08:30:40;17.90;95.30
4376;DHT22;2202;50.866;12.750;2022-08-21T08:33:08;18.10;95.10
4376;DHT22;2202;50.866;12.750;2022-08-21T08:35:35;18.40;94.70
4376;DHT22;2202;50.866;12.750;2022-08-21T08:38:03;18.60;93.20
4376;DHT22;2202;50.866;12.750;2022-08-21T08:40:37;18.70;92.60
4376;DHT22;2202;50.866;12.750;2022-08-21T08:43:06;18.60;93.10
4376;DHT22;2202;50.866;12.750;2022-08-21T08:45:37;18.60;92.50
4376;DHT22;2202;50.866;12.750;2022-08-21T08:48:10;18.70;92.20
4376;DHT22;2202;50.866;12.750;2022-08-21T08:50:42;18.90;92.70
4376;DHT22;2202;50.866;12.750;2022-08-21T08:53:14;18.90;91.70
4376;DHT22;2202;50.866;12.750;2022-08-21T08:55:43;19.00;92.20
4376;DHT22;2202;50.866;12.750;2022-08-21T08:58:13;19.30;90.50
4376;DHT22;2202;50.866;12.750;2022-08-21T09:00:43;19.50;90.00
4376;DHT22;2202;50.866;12.750;2022-08-21T09:03:15;19.70;87.20
4376;DHT22;2202;50.866;12.750;2022-08-21T09:05:45;19.70;88.00
4376;DHT22;2202;50.866;12.750;2022-08-21T09:08:28;19.80;87.00
4376;DHT22;2202;50.866;12.750;2022-08-21T09:11:00;20.10;83.40
4376;DHT22;2202;50.866;12.750;2022-08-21T09:13:46;20.40;84.00
4376;DHT22;2202;50.866;12.750;2022-08-21T09:16:22;20.30;79.60
4376;DHT22;2202;50.866;12.750;2022-08-21T09:18:59;20.30;84.60
4376;DHT22;2202;50.866;12.750;2022-08-21T09:21:37;20.60;85.60
4376;DHT22;2202;50.866;12.750;2022-08-21T09:24:18;20.80;82.80
4376;DHT22;2202;50.866;12.750;2022-08-21T09:26:54;20.60;81.80
4376;DHT22;2202;50.866;12.750;2022-08-21T09:29:26;20.70;83.00
4376;DHT22;2202;50.866;12.750;2022-08-21T09:31:55;21.00;76.60
4376;DHT22;2202;50.866;12.750;2022-08-21T09:34:27;21.30;75.40
4376;DHT22;2202;50.866;12.750;2022-08-21T09:36:56;21.20;73.80
4376;DHT22;2202;50.866;12.750;2022-08-21T09:39:25;21.20;73.60
4376;DHT22;2202;50.866;12.750;2022-08-21T09:41:57;21.50;75.60
4376;DHT22;2202;50.866;12.750;2022-08-21T09:44:26;21.90;67.40
4376;DHT22;2202;50.866;12.750;2022-08-21T09:46:54;22.00;71.20
4376;DHT22;2202;50.866;12.750;2022-08-21T09:49:29;22.30;63.00
4376;DHT22;2202;50.866;12.750;2022-08-21T09:51:57;22.60;64.80
4376;DHT22;2202;50.866;12.750;2022-08-21T09:54:29;22.90;65.00
4376;DHT22;2202;50.866;12.750;2022-08-21T09:56:58;23.00;61.40
4376;DHT22;2202;50.866;12.750;2022-08-21T09:59:44;23.20;58.20
4376;DHT22;2202;50.866;12.750;2022-08-21T10:02:33;23.30;55.10
4376;DHT22;2202;50.866;12.750;2022-08-21T10:05:08;23.20;54.10
4376;DHT22;2202;50.866;12.750;2022-08-21T10:07:37;23.30;57.10
4376;DHT22;2202;50.866;12.750;2022-08-21T10:10:07;23.50;54.40
4376;DHT22;2202;50.866;12.750;2022-08-21T10:12:43;23.50;55.00
4376;DHT22;2202;50.866;12.750;2022-08-21T10:15:18;23.40;53.70
4376;DHT22;2202;50.866;12.750;2022-08-21T10:17:53;23.40;54.10
4376;DHT22;2202;50.866;12.750;2022-08-21T10:20:25;23.50;58.50
4376;DHT22;2202;50.866;12.750;2022-08-21T10:23:04;23.60;56.00
4376;DHT22;2202;50.866;12.750;2022-08-21T10:25:40;23.60;56.60
4376;DHT22;2202;50.866;12.750;2022-08-21T10:28:14;23.80;57.60
4376;DHT22;2202;50.866;12.750;2022-08-21T10:30:49;24.10;57.10
4376;DHT22;2202;50.866;12.750;2022-08-21T10:33:24;24.20;53.00
4376;DHT22;2202;50.866;12.750;2022-08-21T10:36:02;24.00;50.70
4376;DHT22;2202;50.866;12.750;2022-08-21T10:38:58;23.50;55.90
4376;DHT22;2202;50.866;12.750;2022-08-21T10:41:42;23.50;56.00
4376;DHT22;2202;50.866;12.750;2022-08-21T10:44:30;23.40;54.30
4376;DHT22;2202;50.866;12.750;2022-08-21T10:47:02;23.60;53.50
4376;DHT22;2202;50.866;12.750;2022-08-21T10:49:39;23.80;55.10
4376;DHT22;2202;50.866;12.750;2022-08-21T10:54:54;23.90;52.80
4376;DHT22;2202;50.866;12.750;2022-08-21T10:57:27;24.00;49.80
4376;DHT22;2202;50.866;12.750;2022-08-21T11:00:00;24.10;55.00
4376;DHT22;2202;50.866;12.750;2022-08-21T11:02:35;24.30;49.30
4376;DHT22;2202;50.866;12.750;2022-08-21T11:05:10;23.50;51.90
4376;DHT22;2202;50.866;12.750;2022-08-21T11:07:43;23.10;57.80
4376;DHT22;2202;50.866;12.750;2022-08-21T11:10:16;23.00;56.70
4376;DHT22;2202;50.866;12.750;2022-08-21T11:12:48;23.40;53.70
4376;DHT22;2202;50.866;12.750;2022-08-21T11:15:34;23.70;53.70
4376;DHT22;2202;50.866;12.750;2022-08-21T11:18:15;23.60;52.10
4376;DHT22;2202;50.866;12.750;2022-08-21T11:20:48;23.50;52.50
4376;DHT22;2202;50.866;12.750;2022-08-21T11:23:21;23.60;58.00
4376;DHT22;2202;50.866;12.750;2022-08-21T11:25:52;23.70;55.30
4376;DHT22;2202;50.866;12.750;2022-08-21T11:28:23;23.70;55.50
4376;DHT22;2202;50.866;12.750;2022-08-21T11:31:01;23.30;55.50
4376;DHT22;2202;50.866;12.750;2022-08-21T11:33:40;23.40;55.10
4376;DHT22;2202;50.866;12.750;2022-08-21T11:36:17;23.40;53.40
4376;DHT22;2202;50.866;12.750;2022-08-21T11:38:50;23.50;56.70
4376;DHT22;2202;50.866;12.750;2022-08-21T11:41:26;23.90;53.90
4376;DHT22;2202;50.866;12.750;2022-08-21T11:44:02;24.20;51.90
4376;DHT22;2202;50.866;12.750;2022-08-21T11:46:38;24.10;50.30
4376;DHT22;2202;50.866;12.750;2022-08-21T11:49:25;24.00;52.70
4376;DHT22;2202;50.866;12.750;2022-08-21T11:51:58;23.70;55.50
4376;DHT22;2202;50.866;12.750;2022-08-21T11:54:35;23.90;54.10
4376;DHT22;2202;50.866;12.750;2022-08-21T11:57:07;24.00;54.10
4376;DHT22;2202;50.866;12.750;2022-08-21T11:59:39;23.60;52.80
4376;DHT22;2202;50.866;12.750;2022-08-21T12:02:12;22.70;54.60
4376;DHT22;2202;50.866;12.750;2022-08-21T12:04:45;22.70;59.80
4376;DHT22;2202;50.866;12.750;2022-08-21T12:07:15;23.30;56.60
4376;DHT22;2202;50.866;12.750;2022-08-21T12:09:52;23.80;51.90
4376;DHT22;2202;50.866;12.750;2022-08-21T12:12:25;24.00;56.40
4376;DHT22;2202;50.866;12.750;2022-08-21T12:15:14;24.00;51.80
4376;DHT22;2202;50.866;12.750;2022-08-21T12:17:52;24.00;52.50
4376;DHT22;2202;50.866;12.750;2022-08-21T12:20:32;23.70;53.00
4376;DHT22;2202;50.866;12.750;2022-08-21T12:23:05;23.70;54.40
4376;DHT22;2202;50.866;12.750;2022-08-21T12:25:38;23.90;54.40
4376;DHT22;2202;50.866;12.750;2022-08-21T12:28:08;24.00;52.10
4376;DHT22;2202;50.866;12.750;2022-08-21T12:30:38;24.20;55.00
4376;DHT22;2202;50.866;12.750;2022-08-21T12:33:22;24.20;50.70
4376;DHT22;2202;50.866;12.750;2022-08-21T12:35:52;23.70;52.30
4376;DHT22;2202;50.866;12.750;2022-08-21T12:38:23;23.80;53.70
4376;DHT22;2202;50.866;12.750;2022-08-21T12:40:57;23.80;56.00
4376;DHT22;2202;50.866;12.750;2022-08-21T12:43:28;24.00;54.80
4376;DHT22;2202;50.866;12.750;2022-08-21T12:45:56;24.00;51.40
4376;DHT22;2202;50.866;12.750;2022-08-21T12:48:31;24.00;56.60
4376;DHT22;2202;50.866;12.750;2022-08-21T12:51:07;24.20;51.20
4376;DHT22;2202;50.866;12.750;2022-08-21T12:53:40;24.50;49.80
4376;DHT22;2202;50.866;12.750;2022-08-21T12:56:12;24.20;50.50
4376;DHT22;2202;50.866;12.750;2022-08-21T12:58:40;24.40;52.30
4376;DHT22;2202;50.866;12.750;2022-08-21T13:01:15;24.70;48.80
4376;DHT22;2202;50.866;12.750;2022-08-21T13:03:44;24.80;47.30
4376;DHT22;2202;50.866;12.750;2022-08-21T13:06:14;24.90;47.70
4376;DHT22;2202;50.866;12.750;2022-08-21T13:08:43;24.80;48.60
4376;DHT22;2202;50.866;12.750;2022-08-21T13:11:15;24.80;48.20
4376;DHT22;2202;50.866;12.750;2022-08-21T13:13:45;24.30;51.60
4376;DHT22;2202;50.866;12.750;2022-08-21T13:16:19;24.70;49.30
4376;DHT22;2202;50.866;12.750;2022-08-21T13:18:54;24.70;50.20
4376;DHT22;2202;50.866;12.750;2022-08-21T13:21:26;24.80;48.60
4376;DHT22;2202;50.866;12.750;2022-08-21T13:23:54;24.80;46.10
4376;DHT22;2202;50.866;12.750;2022-08-21T13:26:22;24.80;46.40
4376;DHT22;2202;50.866;12.750;2022-08-21T13:28:49;25.00;46.30
4376;DHT22;2202;50.866;12.750;2022-08-21T13:31:20;25.00;50.70
4376;DHT22;2202;50.866;12.750;2022-08-21T13:33:48;24.90;48.40
4376;DHT22;2202;50.866;12.750;2022-08-21T13:36:20;25.10;50.70
4376;DHT22;2202;50.866;12.750;2022-08-21T13:38:51;25.10;48.00
4376;DHT22;2202;50.866;12.750;2022-08-21T13:41:24;25.00;48.40
4376;DHT22;2202;50.866;12.750;2022-08-21T13:43:58;24.50;46.40
4376;DHT22;2202;50.866;12.750;2022-08-21T13:46:29;24.20;50.00
4376;DHT22;2202;50.866;12.750;2022-08-21T13:48:58;23.80;48.20
4376;DHT22;2202;50.866;12.750;2022-08-21T13:51:26;23.40;51.80
4376;DHT22;2202;50.866;12.750;2022-08-21T13:53:53;23.90;50.20
4376;DHT22;2202;50.866;12.750;2022-08-21T13:56:24;24.00;50.00
4376;DHT22;2202;50.866;12.750;2022-08-21T13:58:53;24.30;48.90
4376;DHT22;2202;50.866;12.750;2022-08-21T14:01:22;24.20;50.70
4376;DHT22;2202;50.866;12.750;2022-08-21T14:03:52;24.70;47.70
4376;DHT22;2202;50.866;12.750;2022-08-21T14:06:22;25.00;49.30
4376;DHT22;2202;50.866;12.750;2022-08-21T14:08:51;24.70;47.90
4376;DHT22;2202;50.866;12.750;2022-08-21T14:11:18;24.80;48.00
4376;DHT22;2202;50.866;12.750;2022-08-21T14:13:50;25.00;48.90
4376;DHT22;2202;50.866;12.750;2022-08-21T14:16:24;24.90;50.00
4376;DHT22;2202;50.866;12.750;2022-08-21T14:18:53;24.90;48.60
4376;DHT22;2202;50.866;12.750;2022-08-21T14:21:28;24.80;46.10
4376;DHT22;2202;50.866;12.750;2022-08-21T14:24:09;24.70;47.50
4376;DHT22;2202;50.866;12.750;2022-08-21T14:26:45;24.90;46.80
4376;DHT22;2202;50.866;12.750;2022-08-21T14:29:16;24.70;46.40
4376;DHT22;2202;50.866;12.750;2022-08-21T14:31:48;24.80;47.00
4376;DHT22;2202;50.866;12.750;2022-08-21T14:34:16;24.50;44.10
4376;DHT22;2202;50.866;12.750;2022-08-21T14:36:44;24.10;45.70
4376;DHT22;2202;50.866;12.750;2022-08-21T14:39:11;23.30;46.80
4376;DHT22;2202;50.866;12.750;2022-08-21T14:41:38;23.30;49.50
4376;DHT22;2202;50.866;12.750;2022-08-21T14:44:06;23.70;51.20
4376;DHT22;2202;50.866;12.750;2022-08-21T14:46:35;23.90;47.20
4376;DHT22;2202;50.866;12.750;2022-08-21T14:49:03;24.00;47.70
4376;DHT22;2202;50.866;12.750;2022-08-21T14:51:30;24.10;46.10
4376;DHT22;2202;50.866;12.750;2022-08-21T14:53:57;24.40;47.20
4376;DHT22;2202;50.866;12.750;2022-08-21T14:56:24;24.70;47.70
4376;DHT22;2202;50.866;12.750;2022-08-21T14:58:52;24.50;42.90
4376;DHT22;2202;50.866;12.750;2022-08-21T15:01:22;24.30;44.50
4376;DHT22;2202;50.866;12.750;2022-08-21T15:03:50;24.20;44.80
4376;DHT22;2202;50.866;12.750;2022-08-21T15:06:17;24.10;45.70
4376;DHT22;2202;50.866;12.750;2022-08-21T15:08:46;24.20;45.00
4376;DHT22;2202;50.866;12.750;2022-08-21T15:11:18;24.30;43.80
4376;DHT22;2202;50.866;12.750;2022-08-21T15:13:46;24.00;45.60
4376;DHT22;2202;50.866;12.750;2022-08-21T15:16:13;24.10;45.70
4376;DHT22;2202;50.866;12.750;2022-08-21T15:18:40;24.00;45.90
4376;DHT22;2202;50.866;12.750;2022-08-21T15:21:09;24.20;50.90
4376;DHT22;2202;50.866;12.750;2022-08-21T15:23:36;24.80;45.40
4376;DHT22;2202;50.866;12.750;2022-08-21T15:26:04;25.40;43.10
4376;DHT22;2202;50.866;12.750;2022-08-21T15:28:31;25.30;42.40
4376;DHT22;2202;50.866;12.750;2022-08-21T15:31:00;24.80;43.10
4376;DHT22;2202;50.866;12.750;2022-08-21T15:33:27;24.80;43.80
4376;DHT22;2202;50.866;12.750;2022-08-21T15:35:54;24.80;44.30
4376;DHT22;2202;50.866;12.750;2022-08-21T15:38:22;24.40;43.20
4376;DHT22;2202;50.866;12.750;2022-08-21T15:40:49;24.30;46.80
4376;DHT22;2202;50.866;12.750;2022-08-21T15:43:22;24.50;42.70
4376;DHT22;2202;50.866;12.750;2022-08-21T15:45:50;24.40;43.60
4376;DHT22;2202;50.866;12.750;2022-08-21T15:48:17;24.50;44.10
4376;DHT22;2202;50.866;12.750;2022-08-21T15:50:44;24.70;44.10
4376;DHT22;2202;50.866;12.750;2022-08-21T15:53:11;24.50;42.40
4376;DHT22;2202;50.866;12.750;2022-08-21T15:55:39;24.40;44.10
4376;DHT22;2202;50.866;12.750;2022-08-21T15:58:07;24.20;43.80
4376;DHT22;2202;50.866;12.750;2022-08-21T16:00:38;24.00;46.60
4376;DHT22;2202;50.866;12.750;2022-08-21T16:03:06;24.10;45.60